Главная страница
METAR-TAF:

METAR-TAF

Аэропорты :

Тронхейм, Норвегия

широта: 63-28N, долгота: 010-56E, высота над уровнем моря: 1 м

Текущие метеонаблюдения

Эта сводка был подготовлена 43 минут назад, в 15:50 UTC
Ветер 5 Узел от восточно-юго-восточный
Температура -3°C
Влажность 74%
Давление 1023 hPa
Видимость 10 км и более
небольшая облачность на высоте 4200 фута

METAR: ENVA 151550Z 11005KT 9999 FEW042 M03/M07 Q1023 NOSIG RMK WIND 670FT 15010KT

Время: 17:33 (16:33 UTC)

Прогноз

Прогноз действительный с 15-го 12 UTC до 16-го 12 UTC
Ветер 7 Узел от восточный
Видимость 10 км и более
Отдельные облака на высоте 4000 фута

TAF: ENVA 1512/1612 10007KT 9999 SCT040

Метеонаблюдения и прогнозы для более 4000 аэропортов (сводки METAR и TAF).

Имеющиеся станции представлены на карте желтыми и красными точками.

Чтобы увидеть название станции, наведите на нее мышь.

Затем щелкните, чтобы увидеть метеонаблюдения и метеопрогнозы.

Управление картой: чтобы увеличить масштаб, щелкните зеленые кнопки с черным крестиком; чтобы уменьшить масштаб, щелкните зеленую кнопку с тире; для просмотра соседних карт щелкайте зеленые стрелки.


METAR-TAF: